No particular awareness of the weather is required.    There are no Weather-warnings


Meteo18 Weather Cam more information Meteo18 Weather Cam


Thunder radar more information blitzortung!


Rain radar more information rain snow radar


Visit our other weather sites:

Template documentation
and downloads

And another site



Weather Underground History page Text

Daily Summary for September 19, 2017 Units:  English    Metric   Both
« Previous Day
Next Day »
Daily Weekly Monthly Yearly Custom
  High: Low: Average:
Temperature: TemperatureC °F 8.4 °F 11 °F
Dew Point: DewpointC °F 7.5 °F 8.8 °F
Humidity: Humidity % 69 % 86 %
Wind Speed: WindSpeedKMH mph 0.0 mph 2 mph
Wind Gust: WindSpeedGustKMH mph - -
Wind:- - WNW
Pressure: PressurehPa in 1020.5 in -
Precipitation: 7.1 in    
Historical Graphs
 
 
Tabular Data for September 19, 2017
Time Temperature Dew Point Pressure Wind Wind Speed Wind Gust Humidity Rainfall Rate (Hourly)
TemperatureC °F DewpointC °F PressurehPa in Calm     Humidity % HourlyPrecipMM in
00:02 10.6 °F 8.2 °F 1020.9 in Calm   1.6 mph 85 % 0.0 in
00:07 10.7 °F 8.1 °F 1020.9 in Calm   6.4 mph 84 % 0.0 in
00:12 10.7 °F 8.1 °F 1020.9 in Calm   6.4 mph 84 % 0.0 in
00:17 10.7 °F 8.1 °F 1020.9 in Calm   6.4 mph 84 % 0.0 in
00:22 10.6 °F 8.2 °F 1020.9 in Calm   4.8 mph 85 % 0.0 in
00:27 10.5 °F 8.1 °F 1020.9 in NNW 1.6 mph 4.8 mph 85 % 0.0 in
00:32 10.4 °F 8.0 °F 1020.9 in Calm   3.2 mph 85 % 0.0 in
00:42 10.2 °F 8.0 °F 1020.9 in Calm   1.6 mph 86 % 0.0 in
00:47 10.1 °F 8.0 °F 1020.9 in NW 1.6 mph 1.6 mph 87 % 0.0 in
00:52 10.1 °F 8.0 °F 1020.9 in Calm   3.2 mph 87 % 0.0 in
00:57 10.2 °F 8.1 °F 1020.5 in Calm   3.2 mph 87 % 0.0 in
01:02 10.2 °F 8.1 °F 1020.5 in Calm   3.2 mph 87 % 0.0 in
01:07 10.3 °F 8.2 °F 1020.5 in Calm   8.0 mph 87 % 0.0 in
01:12 10.3 °F 8.2 °F 1020.5 in NW 3.2 mph 8.0 mph 87 % 0.0 in
01:17 10.2 °F 8.1 °F 1020.5 in NW 6.4 mph 6.4 mph 87 % 0.0 in
01:27 9.9 °F 8.0 °F 1020.5 in Calm   6.4 mph 88 % 0.0 in
01:32 9.8 °F 8.1 °F 1020.5 in Calm   6.4 mph 89 % 0.0 in
01:42 9.6 °F 8.0 °F 1020.5 in Calm   6.4 mph 90 % 0.0 in
01:47 9.5 °F 7.9 °F 1020.5 in Calm   6.4 mph 90 % 0.0 in
01:52 9.4 °F 7.8 °F 1020.9 in WNW 3.2 mph 4.8 mph 90 % 0.0 in
01:57 9.3 °F 7.9 °F 1020.9 in WNW 3.2 mph 3.2 mph 91 % 0.0 in
02:02 9.2 °F 7.8 °F 1020.9 in Calm   3.2 mph 91 % 0.0 in
02:12 9.0 °F 7.6 °F 1020.9 in Calm   3.2 mph 91 % 0.0 in
02:17 8.9 °F 7.5 °F 1020.9 in Calm   1.6 mph 91 % 0.0 in
02:22 8.8 °F 7.6 °F 1020.9 in Calm   1.6 mph 92 % 0.0 in
02:27 8.7 °F 7.5 °F 1020.9 in West 1.6 mph 1.6 mph 92 % 0.0 in
02:32 8.7 °F 7.5 °F 1020.9 in WNW 1.6 mph 1.6 mph 92 % 0.0 in
02:42 8.7 °F 7.6 °F 1020.9 in Calm   1.6 mph 93 % 0.0 in
02:47 8.6 °F 7.5 °F 1020.9 in Calm   1.6 mph 93 % 0.0 in
02:52 8.6 °F 7.5 °F 1020.9 in Calm   1.6 mph 93 % 0.0 in
02:57 8.6 °F 7.5 °F 1020.9 in Calm     93 % 0.0 in
03:02 8.7 °F 7.8 °F 1020.9 in Calm     94 % 0.0 in
03:07 8.7 °F 7.6 °F 1020.9 in Calm   1.6 mph 93 % 0.0 in
03:12 8.7 °F 7.8 °F 1020.9 in Calm   3.2 mph 94 % 0.0 in
03:17 8.7 °F 7.6 °F 1020.9 in Calm   3.2 mph 93 % 0.0 in
03:22 8.6 °F 7.7 °F 1020.9 in Calm   1.6 mph 94 % 0.0 in
03:32 8.6 °F 7.7 °F 1020.5 in Calm   1.6 mph 94 % 0.0 in
03:37 8.6 °F 7.7 °F 1020.9 in Calm     94 % 0.0 in
03:42 8.6 °F 7.7 °F 1020.5 in Calm     94 % 0.0 in
03:52 8.6 °F 7.7 °F 1020.5 in Calm   1.6 mph 94 % 0.0 in
03:57 8.6 °F 7.7 °F 1020.5 in Calm   3.2 mph 94 % 0.0 in
04:02 8.6 °F 7.7 °F 1020.5 in NNW 3.2 mph 3.2 mph 94 % 0.0 in
04:07 8.7 °F 7.8 °F 1020.5 in Calm   4.8 mph 94 % 0.0 in
04:12 8.7 °F 7.9 °F 1020.9 in Calm   4.8 mph 95 % 0.0 in
04:17 8.8 °F 7.9 °F 1020.5 in WNW 1.6 mph 4.8 mph 94 % 0.0 in
04:22 8.8 °F 7.9 °F 1020.5 in Calm   4.8 mph 94 % 0.0 in
04:27 8.9 °F 8.0 °F 1020.5 in Calm   4.8 mph 94 % 0.0 in
04:32 8.9 °F 8.0 °F 1020.5 in Calm   4.8 mph 94 % 0.0 in
04:37 8.9 °F 8.0 °F 1020.5 in Calm   6.4 mph 94 % 0.0 in
04:42 8.9 °F 8.0 °F 1020.5 in NW 1.6 mph 6.4 mph 94 % 0.0 in
04:47 9.0 °F 8.1 °F 1020.5 in Calm   3.2 mph 94 % 0.0 in
04:52 9.1 °F 8.3 °F 1020.5 in WNW 1.6 mph 3.2 mph 95 % 0.0 in
05:02 9.2 °F 8.3 °F 1020.5 in Calm   4.8 mph 94 % 0.0 in
05:12 9.0 °F 8.1 °F 1020.5 in Calm   4.8 mph 94 % 0.0 in
05:17 8.9 °F 8.0 °F 1020.5 in Calm   1.6 mph 94 % 0.0 in
05:22 8.9 °F 8.0 °F 1020.5 in Calm   1.6 mph 94 % 0.0 in
05:32 8.8 °F 7.9 °F 1020.5 in Calm   1.6 mph 94 % 0.0 in
05:42 8.7 °F 7.8 °F 1020.5 in Calm   1.6 mph 94 % 0.0 in
05:47 8.6 °F 7.7 °F 1020.5 in Calm     94 % 0.0 in
05:52 8.6 °F 7.8 °F 1020.5 in Calm     95 % 0.0 in
06:02 8.6 °F 7.8 °F 1020.5 in Calm     95 % 0.0 in
06:12 8.5 °F 7.7 °F 1020.5 in Calm     95 % 0.0 in
06:17 8.5 °F 7.7 °F 1020.5 in Calm     95 % 0.0 in
06:22 8.4 °F 7.6 °F 1020.5 in Calm     95 % 0.0 in
06:32 8.4 °F 7.6 °F 1020.5 in Calm     95 % 0.0 in
06:42 8.4 °F 7.6 °F 1020.9 in Calm   1.6 mph 95 % 0.0 in
06:47 8.5 °F 7.7 °F 1020.9 in Calm   1.6 mph 95 % 0.0 in
06:52 8.5 °F 7.9 °F 1020.9 in Calm   1.6 mph 96 % 0.0 in
07:02 8.6 °F 8.0 °F 1020.5 in Calm   1.6 mph 96 % 0.0 in
07:12 8.7 °F 8.1 °F 1020.5 in West 1.6 mph 3.2 mph 96 % 0.0 in
07:17 8.7 °F 8.1 °F 1020.5 in Calm   3.2 mph 96 % 0.0 in
07:22 8.8 °F 8.2 °F 1020.9 in West 4.8 mph 4.8 mph 96 % 0.0 in
07:32 9.0 °F 8.4 °F 1020.9 in West 3.2 mph 4.8 mph 96 % 0.0 in
07:37 9.1 °F 8.5 °F 1020.9 in West 1.6 mph 6.4 mph 96 % 0.0 in
07:42 9.2 °F 8.6 °F 1020.9 in West 1.6 mph 6.4 mph 96 % 0.0 in
07:47 9.2 °F 8.6 °F 1020.5 in Calm   6.4 mph 96 % 0.0 in
07:52 9.2 °F 8.6 °F 1020.9 in West 1.6 mph 6.4 mph 96 % 0.0 in
07:57 9.2 °F 8.6 °F 1020.9 in Calm   3.2 mph 96 % 0.0 in
08:02 9.2 °F 8.4 °F 1020.9 in Calm   3.2 mph 95 % 0.0 in
08:12 9.3 °F 8.5 °F 1020.9 in Calm   3.2 mph 95 % 0.0 in
08:17 9.3 °F 8.5 °F 1020.9 in Calm     95 % 0.0 in
08:22 9.3 °F 8.5 °F 1020.9 in Calm     95 % 0.0 in
08:32 9.3 °F 8.5 °F 1020.9 in Calm     95 % 0.0 in
08:42 9.3 °F 8.5 °F 1020.9 in Calm     95 % 0.3 in
08:52 9.3 °F 8.5 °F 1021.2 in Calm     95 % 0.3 in
08:57 9.4 °F 8.6 °F 1021.2 in Calm     95 % 0.3 in
09:02 9.4 °F 8.6 °F 1021.6 in WNW 1.6 mph   95 % 0.3 in
09:12 9.4 °F 8.6 °F 1021.6 in North 12.9 mph 12.9 mph 95 % 2.3 in
09:17 9.4 °F 8.6 °F 1021.6 in WNW 8.0 mph 17.7 mph 95 % 5.1 in
09:22 9.4 °F 8.6 °F 1021.6 in WNW 6.4 mph 17.7 mph 95 % 5.1 in
09:32 9.4 °F 8.5 °F 1021.6 in NW 3.2 mph 17.7 mph 94 % 5.8 in
09:42 9.3 °F 8.4 °F 1021.6 in SW 4.8 mph 12.9 mph 94 % 6.1 in
09:47 9.3 °F 8.4 °F 1021.2 in SW 3.2 mph 12.9 mph 94 % 6.6 in
09:52 9.3 °F 8.4 °F 1021.2 in WSW 1.6 mph 12.9 mph 94 % 6.6 in
10:02 9.3 °F 8.4 °F 1021.2 in South 1.6 mph 9.7 mph 94 % 6.1 in
10:12 9.4 °F 8.5 °F 1021.6 in Calm   8.0 mph 94 % 4.3 in
10:17 9.6 °F 8.7 °F 1021.6 in Calm   4.8 mph 94 % 2.0 in
10:22 9.7 °F 8.8 °F 1021.6 in Calm   4.8 mph 94 % 2.0 in
10:32 9.9 °F 8.8 °F 1021.6 in Calm   3.2 mph 93 % 1.5 in
10:42 10.1 °F 8.9 °F 1021.6 in Calm   1.6 mph 92 % 0.5 in
10:52 10.6 °F 9.4 °F 1021.6 in Calm   3.2 mph 92 % 0.3 in
11:02 11.0 °F 9.3 °F 1021.9 in Calm   3.2 mph 89 % 0.0 in
11:12 11.6 °F 9.5 °F 1021.6 in Calm   4.8 mph 87 % 0.0 in
11:17 11.9 °F 9.8 °F 1021.6 in NE 1.6 mph 6.4 mph 87 % 0.0 in
11:22 11.9 °F 9.3 °F 1021.6 in NE 1.6 mph 6.4 mph 84 % 0.0 in
11:32 12.2 °F 9.8 °F 1021.6 in ENE 3.2 mph 8.0 mph 85 % 0.0 in
11:42 12.3 °F 9.5 °F 1021.6 in Calm   8.0 mph 83 % 0.0 in
11:47 12.7 °F 10.1 °F 1021.9 in Calm   8.0 mph 84 % 0.0 in
11:52 12.9 °F 9.9 °F 1021.9 in Calm   8.0 mph 82 % 0.0 in
11:57 13.1 °F 9.9 °F 1021.9 in NE 3.2 mph 4.8 mph 81 % 0.0 in
12:02 13.3 °F 10.1 °F 1021.9 in NE 3.2 mph 4.8 mph 81 % 0.0 in
12:12 13.5 °F 10.1 °F 1021.9 in Calm   6.4 mph 80 % 0.0 in
12:17 13.7 °F 9.7 °F 1021.9 in North 3.2 mph 9.7 mph 77 % 0.0 in
12:22 13.6 °F 9.6 °F 1021.9 in Calm   9.7 mph 77 % 0.0 in
12:27 13.5 °F 9.5 °F 1021.9 in WNW 1.6 mph 9.7 mph 77 % 0.0 in
12:32 13.3 °F 9.9 °F 1021.9 in West 6.4 mph 9.7 mph 80 % 0.0 in
12:42 12.6 °F 10.0 °F 1021.9 in WSW 4.8 mph 9.7 mph 84 % 0.0 in
12:47 12.4 °F 9.9 °F 1022.2 in WNW 6.4 mph 9.7 mph 85 % 0.0 in
12:52 12.4 °F 9.9 °F 1022.2 in WSW 6.4 mph 9.7 mph 85 % 0.0 in
12:57 12.5 °F 9.7 °F 1022.2 in WNW 6.4 mph 9.7 mph 83 % 0.0 in
13:02 12.6 °F 9.2 °F 1022.2 in WNW 6.4 mph 9.7 mph 80 % 0.0 in
13:12 13.1 °F 9.2 °F 1021.9 in West 1.6 mph 12.9 mph 77 % 0.0 in
13:17 13.3 °F 9.4 °F 1021.9 in West 9.7 mph 12.9 mph 77 % 0.0 in
13:22 13.5 °F 9.4 °F 1021.9 in WNW 4.8 mph 12.9 mph 76 % 0.0 in
13:32 13.7 °F 9.7 °F 1022.2 in WNW 4.8 mph 14.5 mph 77 % 0.0 in
13:37 13.9 °F 9.7 °F 1022.2 in Calm   19.3 mph 76 % 0.0 in
13:42 14.2 °F 10.0 °F 1022.2 in WSW 9.7 mph 19.3 mph 76 % 0.0 in
13:47 14.6 °F 10.6 °F 1022.2 in WNW 9.7 mph 12.9 mph 77 % 0.0 in
13:52 14.1 °F 9.5 °F 1022.2 in WNW 4.8 mph 17.7 mph 74 % 0.0 in
13:57 14.2 °F 10.0 °F 1022.2 in West 6.4 mph 17.7 mph 76 % 0.0 in
14:02 14.2 °F 10.0 °F 1022.6 in WNW 9.7 mph 17.7 mph 76 % 0.0 in
14:07 14.3 °F 9.9 °F 1022.2 in NNW 6.4 mph 17.7 mph 75 % 0.0 in
14:12 14.4 °F 9.8 °F 1022.2 in North 1.6 mph 17.7 mph 74 % 0.0 in
14:17 14.3 °F 9.9 °F 1022.2 in West 8.0 mph 17.7 mph 75 % 0.0 in
14:22 14.3 °F 9.5 °F 1022.2 in WNW 3.2 mph 17.7 mph 73 % 0.0 in
14:27 14.6 °F 9.8 °F 1022.2 in NNE 3.2 mph 17.7 mph 73 % 0.0 in
14:37 15.1 °F 9.9 °F 1022.2 in NNW 8.0 mph 12.9 mph 71 % 0.0 in
14:42 14.8 °F 9.8 °F 1022.2 in North 9.7 mph 14.5 mph 72 % 0.0 in
14:52 14.3 °F 9.5 °F 1022.6 in WNW 4.8 mph 14.5 mph 73 % 0.0 in
15:02 14.3 °F 9.7 °F 1022.2 in NW 3.2 mph 14.5 mph 74 % 0.0 in
15:07 14.3 °F 9.7 °F 1022.2 in North 3.2 mph 12.9 mph 74 % 0.0 in
15:12 14.4 °F 9.2 °F 1022.2 in WNW 4.8 mph 12.9 mph 71 % 0.0 in
15:17 14.6 °F 9.4 °F 1022.2 in WNW 9.7 mph 12.9 mph 71 % 0.0 in
15:22 14.7 °F 9.1 °F 1022.2 in WNW 6.4 mph 17.7 mph 69 % 0.0 in
15:32 14.4 °F 9.2 °F 1022.2 in West 1.6 mph 17.7 mph 71 % 0.0 in
15:37 14.3 °F 9.3 °F 1022.2 in NW 3.2 mph 17.7 mph 72 % 0.0 in
15:42 14.3 °F 9.3 °F 1022.2 in NNE 9.7 mph 17.7 mph 72 % 0.0 in
15:47 14.2 °F 9.2 °F 1022.2 in NW 4.8 mph 11.3 mph 72 % 0.0 in
15:52 14.2 °F 9.6 °F 1022.2 in WNW 6.4 mph 14.5 mph 74 % 0.0 in
16:02 14.1 °F 9.1 °F 1022.2 in WNW 4.8 mph 14.5 mph 72 % 0.0 in
16:07 14.0 °F 9.4 °F 1022.2 in NW 4.8 mph 12.9 mph 74 % 0.0 in
16:12 14.1 °F 9.9 °F 1022.2 in NNW 4.8 mph 12.9 mph 76 % 0.0 in
16:17 14.0 °F 9.4 °F 1022.2 in NW 3.2 mph 12.9 mph 74 % 0.0 in
16:22 13.9 °F 9.1 °F 1022.2 in WNW 1.6 mph 12.9 mph 73 % 0.0 in
16:32 13.7 °F 8.9 °F 1022.2 in WNW 3.2 mph 12.9 mph 73 % 0.0 in
16:37 13.7 °F 9.1 °F 1022.2 in West 3.2 mph 11.3 mph 74 % 0.0 in
16:42 13.6 °F 9.1 °F 1022.2 in NW 4.8 mph 11.3 mph 74 % 0.0 in
16:52 13.6 °F 9.4 °F 1022.2 in NW 6.4 mph 12.9 mph 76 % 0.0 in
17:02 13.6 °F 9.4 °F 1022.6 in WNW 4.8 mph 11.3 mph 76 % 0.0 in
17:07 13.6 °F 9.4 °F 1022.6 in WNW 3.2 mph 12.9 mph 76 % 0.0 in
17:12 13.6 °F 9.3 °F 1022.6 in NW 3.2 mph 12.9 mph 75 % 0.0 in
17:17 13.6 °F 9.4 °F 1022.6 in NNW 1.6 mph 12.9 mph 76 % 0.0 in
17:22 13.6 °F 9.4 °F 1022.6 in NW 3.2 mph 8.0 mph 76 % 0.0 in
17:32 13.5 °F 9.2 °F 1022.6 in NW 3.2 mph 12.9 mph 75 % 0.0 in
17:37 13.5 °F 9.4 °F 1022.6 in NW 4.8 mph 12.9 mph 76 % 0.0 in
17:42 13.5 °F 9.5 °F 1022.6 in WNW 1.6 mph 12.9 mph 77 % 0.0 in
17:52 13.5 °F 9.5 °F 1022.6 in WNW 4.8 mph 9.7 mph 77 % 0.0 in
17:57 13.5 °F 9.5 °F 1022.6 in Calm   9.7 mph 77 % 0.0 in
18:02 13.5 °F 9.5 °F 1022.9 in NW 1.6 mph 9.7 mph 77 % 0.0 in
18:12 13.4 °F 9.3 °F 1022.9 in NW 6.4 mph 11.3 mph 76 % 0.0 in
18:17 13.4 °F 9.3 °F 1022.9 in WNW 1.6 mph 11.3 mph 76 % 0.0 in
18:22 13.4 °F 9.4 °F 1022.9 in WNW 1.6 mph 11.3 mph 77 % 0.0 in
18:32 13.6 °F 9.6 °F 1022.9 in West 4.8 mph 11.3 mph 77 % 0.0 in
18:37 13.7 °F 9.7 °F 1022.9 in NW 3.2 mph 11.3 mph 77 % 0.0 in
18:42 13.9 °F 9.9 °F 1022.9 in WNW 3.2 mph 8.0 mph 77 % 0.0 in
18:47 13.9 °F 9.7 °F 1022.9 in WNW 4.8 mph 9.7 mph 76 % 0.0 in
18:52 13.9 °F 9.7 °F 1022.9 in Calm   9.7 mph 76 % 0.0 in
19:02 14.0 °F 10.0 °F 1023.2 in NW 3.2 mph 9.7 mph 77 % 0.0 in
19:07 13.9 °F 9.9 °F 1023.2 in WNW 1.6 mph 9.7 mph 77 % 0.0 in
19:12 13.7 °F 9.9 °F 1023.2 in West 4.8 mph 9.7 mph 78 % 0.0 in
19:17 13.3 °F 9.7 °F 1023.2 in NW 6.4 mph 9.7 mph 79 % 0.0 in
19:22 13.1 °F 9.7 °F 1023.6 in NNW 4.8 mph 9.7 mph 80 % 0.0 in
19:32 12.6 °F 9.8 °F 1023.2 in WNW 1.6 mph 8.0 mph 83 % 0.0 in
19:42 12.3 °F 9.7 °F 1023.6 in NNW 1.6 mph 8.0 mph 84 % 0.0 in
19:47 12.1 °F 9.7 °F 1023.6 in Calm   8.0 mph 85 % 0.0 in
19:52 12.0 °F 9.7 °F 1023.6 in Calm   6.4 mph 86 % 0.0 in
19:57 11.8 °F 9.5 °F 1023.9 in Calm   4.8 mph 86 % 0.0 in
20:02 11.6 °F 9.5 °F 1023.9 in WNW 3.2 mph 4.8 mph 87 % 0.0 in
20:12 11.3 °F 9.4 °F 1023.9 in WNW 1.6 mph 8.0 mph 88 % 0.0 in
20:17 11.3 °F 9.6 °F 1023.9 in Calm   6.4 mph 89 % 0.0 in
20:22 11.2 °F 9.5 °F 1023.9 in Calm   4.8 mph 89 % 0.0 in
20:32 11.1 °F 9.5 °F 1023.9 in Calm   4.8 mph 90 % 0.0 in
20:42 10.8 °F 9.2 °F 1024.3 in WNW 3.2 mph 4.8 mph 90 % 0.0 in
20:52 10.7 °F 9.3 °F 1024.3 in NNW 1.6 mph 4.8 mph 91 % 0.0 in
20:57 10.7 °F 9.3 °F 1024.3 in Calm   3.2 mph 91 % 0.0 in
21:02 10.6 °F 9.2 °F 1024.3 in Calm   3.2 mph 91 % 0.0 in
21:12 10.5 °F 9.3 °F 1024.3 in Calm   1.6 mph 92 % 0.0 in
21:17 10.5 °F 9.3 °F 1024.3 in Calm   1.6 mph 92 % 0.0 in
21:22 10.4 °F 9.2 °F 1024.6 in Calm   1.6 mph 92 % 0.0 in
21:27 10.3 °F 9.1 °F 1024.6 in NW 3.2 mph 3.2 mph 92 % 0.0 in
21:32 10.3 °F 9.1 °F 1024.6 in NW 1.6 mph 1.6 mph 92 % 0.0 in
21:37 10.2 °F 9.0 °F 1024.6 in WNW 1.6 mph 3.2 mph 92 % 0.0 in
21:42 10.2 °F 9.1 °F 1024.6 in Calm   3.2 mph 93 % 0.0 in
21:47 10.2 °F 9.1 °F 1024.6 in Calm   3.2 mph 93 % 0.0 in
21:52 10.2 °F 9.1 °F 1024.6 in NW 1.6 mph 1.6 mph 93 % 0.0 in
21:57 10.2 °F 9.1 °F 1024.9 in Calm   3.2 mph 93 % 0.0 in
22:02 10.3 °F 9.2 °F 1024.9 in NW 1.6 mph 3.2 mph 93 % 0.0 in
22:12 10.3 °F 9.1 °F 1024.9 in North 1.6 mph 3.2 mph 92 % 0.0 in
22:17 10.2 °F 9.0 °F 1024.9 in NNW 1.6 mph 3.2 mph 92 % 0.0 in
22:22 10.2 °F 9.0 °F 1024.9 in Calm   4.8 mph 92 % 0.0 in
22:32 10.1 °F 8.9 °F 1024.9 in North 1.6 mph 4.8 mph 92 % 0.0 in
22:42 10.0 °F 8.8 °F 1024.9 in NNW 1.6 mph 3.2 mph 92 % 0.0 in
22:52 10.0 °F 8.8 °F 1024.9 in Calm   4.8 mph 92 % 0.0 in
22:57 10.1 °F 8.9 °F 1024.9 in NW 1.6 mph 4.8 mph 92 % 0.0 in
23:02 10.1 °F 8.9 °F 1024.9 in NW 1.6 mph 4.8 mph 92 % 0.0 in
23:07 10.1 °F 8.9 °F 1024.9 in NW 3.2 mph 4.8 mph 92 % 0.0 in
23:12 10.1 °F 8.9 °F 1024.9 in NW 3.2 mph 4.8 mph 92 % 0.0 in
23:17 10.2 °F 9.0 °F 1024.9 in NW 1.6 mph 4.8 mph 92 % 0.0 in
23:22 10.2 °F 8.8 °F 1024.9 in NW 1.6 mph 4.8 mph 91 % 0.0 in
23:32 9.9 °F 8.3 °F 1024.9 in Calm   3.2 mph 90 % 0.0 in
23:37 9.4 °F 7.8 °F 1024.9 in Calm   3.2 mph 90 % 0.0 in
23:42 9.3 °F 7.9 °F 1024.9 in Calm   3.2 mph 91 % 0.0 in
23:47 9.2 °F 8.0 °F 1024.9 in Calm   1.6 mph 92 % 0.0 in
23:52 9.2 °F 8.1 °F 1024.9 in Calm   1.6 mph 93 % 0.0 in
Meteo18
Compliments of Weather Underground - 4 mb

Script developed by  Jim McMurry - jmcmurry@mwt.net Adapted for the template by  Wim van der Kuil - Leuven-Template.eu

You find our weather info also at:

European Weather Network

Weather Underground

Equipment we use:

Weather-station
Davis Vue

Weather-program
Meteobridge

Weather-server
Raspberry PI 2 B+

Provider
1 and 1

Davis Vue

Meteobridge

Raspberry PI 2 B+

1 and 1